Time;durP1;ratioP1;P1;durP2;ratioP2;P2;SDS_P1;SDS_P2;PMS_P1;PMS_P2;Temp;Humidity;BMP_temperature;BMP_pressure;BME280_temperature;BME280_humidity;BME280_pressure;Samples;Min_cycle;Max_cycle;Signal;HPM_P1;HPM_P2
2022/08/02 00:00:23;;;;;;;1.83;1.40;;;;;;;;;;6157186;23;20417;-73
2022/08/02 00:02:49;;;;;;;2.35;1.35;;;;;;;;;;6156923;23;20005;-73
2022/08/02 00:05:15;;;;;;;1.40;1.30;;;;;;;;;;6157246;23;20005;-73
2022/08/02 00:07:41;;;;;;;1.77;1.50;;;;;;;;;;6157390;23;20005;-72
2022/08/02 00:10:09;;;;;;;2.45;1.55;;;;;;;;;;6156658;23;20037;-73
2022/08/02 00:12:35;;;;;;;1.88;1.60;;;;;;;;;;6156868;23;20072;-72
2022/08/02 00:15:01;;;;;;;2.00;1.50;;;;;;;;;;6157069;23;20080;-73
2022/08/02 00:17:27;;;;;;;2.20;1.70;;;;;;;;;;6156764;23;20001;-73
2022/08/02 00:19:53;;;;;;;3.25;1.70;;;;;;;;;;6156976;23;20002;-73
2022/08/02 00:22:19;;;;;;;2.30;1.40;;;;;;;;;;6157441;23;20068;-73
2022/08/02 00:24:45;;;;;;;3.45;1.60;;;;;;;;;;6155755;23;20021;-73
2022/08/02 00:27:12;;;;;;;2.72;1.45;;;;;;;;;;6156535;23;20028;-73
2022/08/02 00:29:38;;;;;;;1.73;1.38;;;;;;;;;;6156854;23;20088;-73
2022/08/02 00:32:05;;;;;;;2.45;1.35;;;;;;;;;;6156580;23;20002;-73
2022/08/02 00:34:31;;;;;;;2.60;1.92;;;;;;;;;;6157263;23;20002;-72
2022/08/02 00:36:57;;;;;;;2.42;1.77;;;;;;;;;;6157619;23;20060;-73
2022/08/02 00:39:23;;;;;;;2.33;1.58;;;;;;;;;;6156732;23;20029;-73
2022/08/02 00:41:51;;;;;;;2.22;1.55;;;;;;;;;;6157013;23;20029;-73
2022/08/02 00:44:18;;;;;;;1.52;1.42;;;;;;;;;;6157215;23;20426;-72
2022/08/02 00:46:44;;;;;;;4.78;2.00;;;;;;;;;;6156672;23;20029;-72
2022/08/02 00:49:11;;;;;;;3.67;1.73;;;;;;;;;;6156211;23;20072;-73
2022/08/02 00:51:37;;;;;;;2.00;1.80;;;;;;;;;;6156682;23;20077;-73
2022/08/02 00:54:03;;;;;;;3.20;1.70;;;;;;;;;;6156580;23;20055;-72
2022/08/02 00:56:29;;;;;;;3.05;1.48;;;;;;;;;;6156287;23;20001;-73
2022/08/02 00:58:56;;;;;;;4.22;1.80;;;;;;;;;;6156292;23;20010;-72
2022/08/02 01:01:37;;;;;;;2.63;1.50;;;;;;;;;;6156602;23;20008;-72
2022/08/02 01:04:13;;;;;;;2.65;1.30;;;;;;;;;;6157285;23;20009;-72
2022/08/02 01:06:40;;;;;;;2.75;1.67;;;;;;;;;;6156656;23;20012;-73
2022/08/02 01:09:07;;;;;;;3.28;1.42;;;;;;;;;;6155879;23;20013;-73
2022/08/02 01:11:34;;;;;;;1.98;1.52;;;;;;;;;;6158188;23;20011;-73
2022/08/02 01:14:10;;;;;;;3.75;1.70;;;;;;;;;;6158577;23;20005;-72
2022/08/02 01:16:39;;;;;;;2.03;1.90;;;;;;;;;;6158875;23;20021;-73
2022/08/02 01:19:25;;;;;;;4.68;1.67;;;;;;;;;;6157993;23;20009;-72
2022/08/02 01:22:05;;;;;;;1.75;1.65;;;;;;;;;;6142567;23;20012;-73
2022/08/02 01:24:33;;;;;;;1.65;1.55;;;;;;;;;;6158333;23;20029;-73
2022/08/02 01:27:20;;;;;;;1.80;1.50;;;;;;;;;;6158769;23;20059;-73
2022/08/02 01:29:51;;;;;;;1.83;1.73;;;;;;;;;;6158816;23;20010;-73
2022/08/02 01:32:24;;;;;;;1.85;1.60;;;;;;;;;;6158419;23;20072;-73
2022/08/02 01:35:11;;;;;;;1.70;1.60;;;;;;;;;;6158730;23;20005;-73
2022/08/02 01:37:40;;;;;;;3.13;1.80;;;;;;;;;;6158683;23;20010;-73
2022/08/02 01:40:11;;;;;;;1.67;1.58;;;;;;;;;;6158373;23;20464;-72
2022/08/02 01:42:39;;;;;;;1.65;1.55;;;;;;;;;;6158208;23;20001;-72
2022/08/02 01:45:06;;;;;;;3.33;2.20;;;;;;;;;;6158423;23;20006;-73
2022/08/02 01:47:34;;;;;;;3.25;1.60;;;;;;;;;;6157882;23;20001;-72
2022/08/02 01:50:02;;;;;;;1.95;1.85;;;;;;;;;;6158019;23;20001;-73
2022/08/02 01:52:30;;;;;;;1.67;1.58;;;;;;;;;;6158137;23;20001;-72
2022/08/02 01:54:58;;;;;;;2.78;1.58;;;;;;;;;;6158522;23;20032;-73
2022/08/02 01:57:26;;;;;;;1.85;1.60;;;;;;;;;;6158085;23;20036;-73
2022/08/02 01:59:54;;;;;;;2.35;1.67;;;;;;;;;;6158018;23;20005;-73
2022/08/02 02:02:21;;;;;;;1.92;1.60;;;;;;;;;;6158696;23;20056;-73
2022/08/02 02:04:48;;;;;;;3.35;2.25;;;;;;;;;;6158518;23;20468;-73
2022/08/02 02:07:15;;;;;;;1.92;1.80;;;;;;;;;;6157998;23;20483;-73
2022/08/02 02:09:42;;;;;;;1.70;1.60;;;;;;;;;;6157888;23;20017;-73
2022/08/02 02:12:08;;;;;;;2.15;1.95;;;;;;;;;;6157565;23;20400;-72
2022/08/02 02:14:35;;;;;;;2.20;1.75;;;;;;;;;;6158493;23;20461;-73
2022/08/02 02:17:02;;;;;;;2.25;1.52;;;;;;;;;;6157909;23;20008;-72
2022/08/02 02:19:28;;;;;;;2.13;1.63;;;;;;;;;;6157478;23;20080;-73
2022/08/02 02:21:55;;;;;;;1.60;1.50;;;;;;;;;;6157148;23;19998;-72
2022/08/02 02:24:21;;;;;;;3.20;1.90;;;;;;;;;;6157605;23;20012;-73
2022/08/02 02:26:48;;;;;;;1.90;1.70;;;;;;;;;;6158206;23;20487;-73
2022/08/02 02:29:16;;;;;;;3.15;1.80;;;;;;;;;;6157643;23;20014;-73
2022/08/02 02:31:43;;;;;;;4.28;1.90;;;;;;;;;;6158128;23;19998;-72
2022/08/02 02:34:45;;;;;;;1.58;1.48;;;;;;;;;;6157772;23;20001;-73
2022/08/02 02:37:21;;;;;;;1.48;1.38;;;;;;;;;;6068006;23;20003;-72
2022/08/02 02:39:49;;;;;;;1.85;1.60;;;;;;;;;;6145045;23;20468;-73
2022/08/02 02:42:17;;;;;;;3.90;1.95;;;;;;;;;;6157325;23;20437;-72
2022/08/02 02:44:44;;;;;;;2.83;1.50;;;;;;;;;;6157441;23;20400;-73
2022/08/02 02:47:11;;;;;;;2.92;1.70;;;;;;;;;;6157211;23;20001;-73
2022/08/02 02:49:37;;;;;;;3.90;2.20;;;;;;;;;;6157370;23;20013;-73
2022/08/02 02:52:05;;;;;;;2.17;1.83;;;;;;;;;;6158272;23;20001;-72
2022/08/02 02:54:32;;;;;;;3.03;1.95;;;;;;;;;;6157688;23;20027;-72
2022/08/02 02:56:59;;;;;;;7.20;1.65;;;;;;;;;;6157339;23;20009;-73
2022/08/02 02:59:25;;;;;;;3.17;2.00;;;;;;;;;;6158061;23;20056;-73
2022/08/02 03:01:53;;;;;;;4.60;1.80;;;;;;;;;;6157508;23;20417;-73
2022/08/02 03:04:20;;;;;;;2.90;1.63;;;;;;;;;;6158115;23;20005;-72
2022/08/02 03:06:46;;;;;;;2.00;1.63;;;;;;;;;;6155911;23;20005;-73
2022/08/02 03:09:12;;;;;;;2.50;2.30;;;;;;;;;;6157201;23;20013;-72
2022/08/02 03:11:40;;;;;;;5.90;1.88;;;;;;;;;;6157383;23;20432;-73
2022/08/02 03:14:09;;;;;;;4.13;1.77;;;;;;;;;;6157905;23;20012;-73
2022/08/02 03:16:41;;;;;;;3.70;1.85;;;;;;;;;;6157365;23;20002;-73
2022/08/02 03:19:07;;;;;;;5.28;1.83;;;;;;;;;;6157988;23;20473;-72
2022/08/02 03:21:33;;;;;;;2.55;1.60;;;;;;;;;;6157315;23;20076;-73
2022/08/02 03:23:59;;;;;;;2.60;2.25;;;;;;;;;;6157106;23;20005;-73
2022/08/02 03:26:25;;;;;;;3.70;1.73;;;;;;;;;;6157394;23;20017;-72
2022/08/02 03:28:51;;;;;;;2.92;1.70;;;;;;;;;;6157118;23;20484;-73
2022/08/02 03:31:18;;;;;;;1.90;1.70;;;;;;;;;;6156883;23;20069;-73
2022/08/02 03:33:44;;;;;;;3.08;2.00;;;;;;;;;;6156797;23;20492;-73
2022/08/02 03:36:15;;;;;;;2.88;1.50;;;;;;;;;;6157166;23;20001;-73
2022/08/02 03:38:41;;;;;;;;;;;;;;;;;;6157623;23;20060;-73
2022/08/02 03:41:08;;;;;;;2.92;1.50;;;;;;;;;;6156916;23;19904;-73
2022/08/02 03:43:35;;;;;;;2.58;1.80;;;;;;;;;;6157067;23;20008;-72
2022/08/02 03:46:03;;;;;;;2.80;1.63;;;;;;;;;;6156777;23;20060;-72
2022/08/02 03:48:29;;;;;;;1.95;1.65;;;;;;;;;;6157004;23;20085;-73
2022/08/02 03:50:56;;;;;;;2.20;1.90;;;;;;;;;;6156230;23;20005;-72
2022/08/02 03:53:22;;;;;;;3.55;1.88;;;;;;;;;;6156336;23;20080;-72
2022/08/02 03:55:49;;;;;;;2.13;1.90;;;;;;;;;;6156232;23;20088;-72
2022/08/02 03:58:19;;;;;;;1.75;1.55;;;;;;;;;;6156255;23;20005;-73
2022/08/02 04:00:45;;;;;;;6.53;1.93;;;;;;;;;;6156765;23;20002;-73
2022/08/02 04:03:11;;;;;;;2.05;1.80;;;;;;;;;;6156456;23;20032;-73
2022/08/02 04:05:37;;;;;;;3.08;1.73;;;;;;;;;;6156169;23;20445;-73
2022/08/02 04:08:03;;;;;;;1.80;1.70;;;;;;;;;;6156267;23;20132;-72
2022/08/02 04:10:30;;;;;;;2.90;1.90;;;;;;;;;;6155902;23;20505;-72
2022/08/02 04:12:56;;;;;;;3.20;1.80;;;;;;;;;;6155981;23;20001;-73
2022/08/02 04:15:23;;;;;;;2.92;2.00;;;;;;;;;;6156941;23;20468;-73
2022/08/02 04:17:50;;;;;;;2.75;1.70;;;;;;;;;;6155965;23;20020;-73
2022/08/02 04:20:22;;;;;;;4.25;1.88;;;;;;;;;;6154254;23;20081;-73
2022/08/02 04:22:48;;;;;;;2.25;1.80;;;;;;;;;;6154774;23;20008;-71
2022/08/02 04:25:15;;;;;;;4.18;2.03;;;;;;;;;;6154956;23;20029;-72
2022/08/02 04:27:42;;;;;;;2.10;1.90;;;;;;;;;;6155290;23;20020;-72
2022/08/02 04:30:08;;;;;;;2.42;2.00;;;;;;;;;;6156108;23;19998;-72
2022/08/02 04:32:35;;;;;;;2.10;1.67;;;;;;;;;;6156296;23;20012;-72
2022/08/02 04:35:01;;;;;;;1.92;1.83;;;;;;;;;;6156585;23;20052;-72
2022/08/02 04:37:27;;;;;;;4.18;1.80;;;;;;;;;;6156398;23;20012;-72
2022/08/02 04:39:54;;;;;;;4.10;1.98;;;;;;;;;;6156156;23;20005;-72
2022/08/02 04:42:21;;;;;;;5.07;1.75;;;;;;;;;;6157362;23;20001;-72
2022/08/02 04:44:47;;;;;;;2.28;1.73;;;;;;;;;;6157653;23;20076;-72
2022/08/02 04:47:13;;;;;;;5.85;2.00;;;;;;;;;;6159606;23;20032;-72
2022/08/02 04:49:39;;;;;;;3.45;1.65;;;;;;;;;;6159680;23;20020;-70
2022/08/02 04:52:05;;;;;;;9.75;2.30;;;;;;;;;;6160258;23;20091;-68
2022/08/02 04:54:31;;;;;;;7.80;2.00;;;;;;;;;;6159440;23;20002;-69
2022/08/02 04:56:57;;;;;;;4.07;1.92;;;;;;;;;;6159002;23;20033;-69
2022/08/02 04:59:23;;;;;;;3.42;2.13;;;;;;;;;;6159531;23;20468;-68
2022/08/02 05:01:50;;;;;;;4.53;2.30;;;;;;;;;;6159934;23;20072;-69
2022/08/02 05:04:16;;;;;;;2.95;2.05;;;;;;;;;;6159960;23;20487;-69
2022/08/02 05:06:42;;;;;;;2.30;2.10;;;;;;;;;;6159384;23;20011;-68
2022/08/02 05:09:08;;;;;;;2.13;1.92;;;;;;;;;;6159461;23;20020;-69
2022/08/02 05:11:35;;;;;;;5.45;2.38;;;;;;;;;;6159812;23;20012;-69
2022/08/02 05:14:01;;;;;;;8.20;1.95;;;;;;;;;;6159846;23;20024;-69
2022/08/02 05:16:27;;;;;;;4.82;2.25;;;;;;;;;;6159784;23;20080;-68
2022/08/02 05:18:53;;;;;;;3.00;2.03;;;;;;;;;;6159753;23;20005;-69
2022/08/02 05:21:19;;;;;;;3.47;2.10;;;;;;;;;;6159795;23;20080;-69
2022/08/02 05:23:46;;;;;;;2.75;1.92;;;;;;;;;;6159754;23;20032;-68
2022/08/02 05:26:12;;;;;;;5.20;2.30;;;;;;;;;;6158849;23;20076;-68
2022/08/02 05:28:38;;;;;;;3.05;2.10;;;;;;;;;;6159710;23;20448;-69
2022/08/02 05:31:04;;;;;;;5.30;2.13;;;;;;;;;;6159396;23;20002;-68
2022/08/02 05:33:30;;;;;;;5.93;2.55;;;;;;;;;;6159765;23;20005;-68
2022/08/02 05:35:57;;;;;;;2.33;2.13;;;;;;;;;;6159905;23;20001;-68
2022/08/02 05:38:25;;;;;;;4.50;1.90;;;;;;;;;;6159645;23;20437;-68
2022/08/02 05:40:51;;;;;;;3.63;1.98;;;;;;;;;;6158951;23;20116;-68
2022/08/02 05:43:17;;;;;;;3.03;2.00;;;;;;;;;;6159111;23;20069;-68
2022/08/02 05:45:44;;;;;;;4.82;2.10;;;;;;;;;;6159493;23;20002;-67
2022/08/02 05:48:10;;;;;;;8.15;2.13;;;;;;;;;;6159417;23;20017;-67
2022/08/02 05:50:38;;;;;;;3.05;2.00;;;;;;;;;;6159414;23;20456;-67
2022/08/02 05:53:09;;;;;;;2.92;2.13;;;;;;;;;;6159140;23;20437;-67
2022/08/02 05:55:39;;;;;;;4.60;2.10;;;;;;;;;;6158765;23;20008;-67
2022/08/02 05:58:10;;;;;;;3.97;1.77;;;;;;;;;;6157879;23;20455;-67
2022/08/02 06:00:39;;;;;;;2.83;1.98;;;;;;;;;;6157628;23;20001;-67
2022/08/02 06:03:05;;;;;;;4.10;2.20;;;;;;;;;;6157707;23;20005;-67
2022/08/02 06:05:39;;;;;;;3.42;2.10;;;;;;;;;;6158168;23;20072;-67
2022/08/02 06:08:08;;;;;;;5.97;2.20;;;;;;;;;;6158337;23;20080;-67
2022/08/02 06:10:35;;;;;;;3.40;2.30;;;;;;;;;;6157323;23;20337;-67
2022/08/02 06:13:04;;;;;;;7.65;2.58;;;;;;;;;;6157956;23;20437;-67
2022/08/02 06:15:30;;;;;;;8.45;2.22;;;;;;;;;;6157831;23;20001;-67
2022/08/02 06:17:57;;;;;;;8.85;2.17;;;;;;;;;;6158018;23;20064;-67
2022/08/02 06:20:23;;;;;;;5.05;2.08;;;;;;;;;;6157599;23;20143;-67
2022/08/02 06:22:50;;;;;;;5.75;2.45;;;;;;;;;;6157855;23;20052;-67
2022/08/02 06:25:18;;;;;;;6.40;2.38;;;;;;;;;;6157388;23;20080;-67
2022/08/02 06:27:45;;;;;;;6.05;2.28;;;;;;;;;;6157496;23;20006;-67
2022/08/02 06:30:12;;;;;;;4.15;1.80;;;;;;;;;;6157768;23;20076;-67
2022/08/02 06:32:38;;;;;;;5.13;1.95;;;;;;;;;;6157382;23;20205;-67
2022/08/02 06:35:05;;;;;;;5.57;2.28;;;;;;;;;;6157598;23;19997;-68
2022/08/02 06:37:49;;;;;;;3.88;2.10;;;;;;;;;;6157393;23;20448;-68
2022/08/02 06:40:32;;;;;;;4.32;1.77;;;;;;;;;;6157198;23;19998;-68
2022/08/02 06:43:05;;;;;;;6.15;2.05;;;;;;;;;;6157553;23;20021;-68
2022/08/02 06:45:33;;;;;;;7.68;2.50;;;;;;;;;;6157764;23;20005;-68
2022/08/02 06:47:59;;;;;;;4.05;1.60;;;;;;;;;;6156895;23;20017;-68
2022/08/02 06:50:25;;;;;;;4.47;1.95;;;;;;;;;;6157133;23;20005;-68
2022/08/02 06:52:51;;;;;;;3.85;1.90;;;;;;;;;;6157102;23;19997;-68
2022/08/02 06:55:17;;;;;;;3.20;1.60;;;;;;;;;;6157198;23;20005;-68
2022/08/02 06:57:43;;;;;;;2.85;1.92;;;;;;;;;;6157226;23;20001;-68
2022/08/02 07:00:10;;;;;;;4.63;2.00;;;;;;;;;;6156937;23;20010;-68
2022/08/02 07:02:36;;;;;;;7.80;1.98;;;;;;;;;;6157012;23;20032;-68
2022/08/02 07:05:03;;;;;;;3.00;2.40;;;;;;;;;;6157633;23;20008;-68
2022/08/02 07:07:30;;;;;;;3.58;1.75;;;;;;;;;;6156704;23;20076;-68
2022/08/02 07:09:57;;;;;;;4.38;2.20;;;;;;;;;;6156920;23;20010;-68
2022/08/02 07:12:23;;;;;;;3.63;1.88;;;;;;;;;;6157055;23;20006;-68
2022/08/02 07:14:49;;;;;;;3.00;1.90;;;;;;;;;;6156660;23;20006;-68
2022/08/02 07:17:15;;;;;;;4.40;2.00;;;;;;;;;;6156807;23;20006;-68
2022/08/02 07:19:41;;;;;;;3.30;2.10;;;;;;;;;;6156900;23;20452;-68
2022/08/02 07:22:07;;;;;;;5.60;1.85;;;;;;;;;;6156247;23;20002;-69
2022/08/02 07:24:34;;;;;;;5.07;1.98;;;;;;;;;;6156218;23;20013;-69
2022/08/02 07:27:00;;;;;;;1.58;1.48;;;;;;;;;;6157791;23;20029;-69
2022/08/02 07:29:26;;;;;;;2.50;1.70;;;;;;;;;;6157288;23;20418;-69
2022/08/02 07:31:53;;;;;;;4.43;1.83;;;;;;;;;;6156879;23;20336;-69
2022/08/02 07:34:19;;;;;;;5.70;1.95;;;;;;;;;;6157647;23;20005;-68
2022/08/02 07:36:45;;;;;;;3.42;1.60;;;;;;;;;;6157488;23;20006;-68
2022/08/02 07:39:11;;;;;;;3.00;1.77;;;;;;;;;;6156573;23;20006;-69
2022/08/02 07:41:37;;;;;;;3.47;2.03;;;;;;;;;;6157179;23;20509;-68
2022/08/02 07:44:03;;;;;;;7.50;2.03;;;;;;;;;;6157794;23;20008;-68
2022/08/02 07:46:32;;;;;;;3.83;1.90;;;;;;;;;;6157350;23;20005;-68
2022/08/02 07:48:58;;;;;;;4.03;2.40;;;;;;;;;;6156844;23;20088;-68
2022/08/02 07:51:24;;;;;;;3.22;1.70;;;;;;;;;;6157050;23;20450;-68
2022/08/02 07:53:50;;;;;;;3.25;1.88;;;;;;;;;;6157578;23;20078;-68
2022/08/02 07:56:16;;;;;;;5.63;2.10;;;;;;;;;;6156953;23;20425;-68
2022/08/02 07:58:42;;;;;;;4.78;2.05;;;;;;;;;;6156953;23;20076;-68
2022/08/02 08:01:09;;;;;;;3.25;1.88;;;;;;;;;;6156609;23;20002;-68
2022/08/02 08:03:35;;;;;;;2.17;1.70;;;;;;;;;;6156923;23;20005;-68
2022/08/02 08:06:01;;;;;;;9.05;2.10;;;;;;;;;;6156949;23;20352;-68
2022/08/02 08:08:27;;;;;;;5.03;2.05;;;;;;;;;;6157146;23;20063;-68
2022/08/02 08:10:53;;;;;;;2.00;1.70;;;;;;;;;;6156795;23;20095;-68
2022/08/02 08:13:19;;;;;;;4.15;1.98;;;;;;;;;;6156895;23;20060;-68
2022/08/02 08:15:46;;;;;;;3.63;2.05;;;;;;;;;;6157026;23;20006;-69
2022/08/02 08:18:12;;;;;;;3.80;2.47;;;;;;;;;;6157063;23;20005;-69
2022/08/02 08:20:38;;;;;;;2.45;1.60;;;;;;;;;;6156668;23;20013;-69
2022/08/02 08:23:05;;;;;;;1.73;1.60;;;;;;;;;;6157456;23;20001;-70
2022/08/02 08:25:31;;;;;;;2.88;1.88;;;;;;;;;;6156851;23;20084;-70
2022/08/02 08:27:57;;;;;;;4.22;2.20;;;;;;;;;;6156699;23;20380;-69
2022/08/02 08:30:23;;;;;;;3.10;1.75;;;;;;;;;;6156893;23;20005;-69
2022/08/02 08:32:49;;;;;;;13.10;2.20;;;;;;;;;;6156341;23;20056;-69
2022/08/02 08:35:15;;;;;;;4.22;1.95;;;;;;;;;;6157124;23;20441;-69
2022/08/02 08:37:42;;;;;;;3.47;1.70;;;;;;;;;;6156367;23;20005;-69
2022/08/02 08:40:08;;;;;;;8.38;1.83;;;;;;;;;;6156184;23;20013;-69
2022/08/02 08:42:37;;;;;;;4.65;1.70;;;;;;;;;;6156686;23;20465;-69
2022/08/02 08:45:04;;;;;;;5.38;1.90;;;;;;;;;;6157109;23;20005;-69
2022/08/02 08:47:33;;;;;;;4.22;1.80;;;;;;;;;;6156234;23;20004;-69
2022/08/02 08:50:01;;;;;;;7.32;2.00;;;;;;;;;;6156333;23;20084;-69
2022/08/02 08:52:27;;;;;;;6.72;1.92;;;;;;;;;;6156565;23;20448;-69
2022/08/02 08:54:54;;;;;;;4.90;2.08;;;;;;;;;;6156511;23;20002;-69
2022/08/02 08:57:20;;;;;;;2.67;1.77;;;;;;;;;;6156284;23;20006;-69
2022/08/02 08:59:47;;;;;;;5.30;2.03;;;;;;;;;;6157079;23;20128;-69
2022/08/02 09:02:13;;;;;;;3.33;1.80;;;;;;;;;;6156270;23;20437;-69
2022/08/02 09:04:39;;;;;;;4.22;2.00;;;;;;;;;;6157123;23;20006;-69
2022/08/02 09:07:05;;;;;;;3.80;1.63;;;;;;;;;;6156244;23;20009;-69
2022/08/02 09:09:32;;;;;;;1.70;1.60;;;;;;;;;;6156792;23;20077;-69
2022/08/02 09:12:18;;;;;;;2.03;1.70;;;;;;;;;;6156486;23;20404;-69
2022/08/02 09:14:48;;;;;;;2.72;1.75;;;;;;;;;;6157081;23;19998;-69
2022/08/02 09:17:14;;;;;;;4.43;1.70;;;;;;;;;;6157086;23;20013;-69
2022/08/02 09:19:40;;;;;;;2.38;1.70;;;;;;;;;;6156554;23;20001;-69
2022/08/02 09:22:07;;;;;;;4.57;1.85;;;;;;;;;;6156218;23;20017;-69
2022/08/02 09:24:50;;;;;;;5.28;1.70;;;;;;;;;;6156662;23;20017;-70
2022/08/02 09:27:22;;;;;;;3.92;1.67;;;;;;;;;;6156086;23;20006;-69
2022/08/02 09:29:53;;;;;;;2.53;1.58;;;;;;;;;;6156384;23;20010;-70
2022/08/02 09:32:19;;;;;;;;;;;;;;;;;;6157433;23;20052;-70
2022/08/02 09:34:49;;;;;;;5.25;1.60;;;;;;;;;;6157930;23;19904;-69
2022/08/02 09:37:23;;;;;;;1.70;1.60;;;;;;;;;;6158319;23;20054;-70
2022/08/02 09:39:49;;;;;;;3.55;1.88;;;;;;;;;;6158078;23;20477;-69
2022/08/02 09:42:15;;;;;;;1.98;1.77;;;;;;;;;;6158254;23;20448;-69
2022/08/02 09:45:01;;;;;;;4.60;2.30;;;;;;;;;;6158764;23;20033;-70
2022/08/02 09:47:28;;;;;;;5.80;1.88;;;;;;;;;;6158067;23;20001;-70
2022/08/02 09:49:55;;;;;;;2.97;2.03;;;;;;;;;;6158085;23;20024;-69
2022/08/02 09:52:22;;;;;;;2.15;1.70;;;;;;;;;;6157841;23;19998;-69
2022/08/02 09:54:48;;;;;;;2.00;1.50;;;;;;;;;;6158052;23;20456;-69
2022/08/02 09:57:24;;;;;;;4.65;1.88;;;;;;;;;;6158119;23;20004;-70
2022/08/02 09:59:54;;;;;;;3.08;1.30;;;;;;;;;;6158149;23;20009;-70
2022/08/02 10:02:21;;;;;;;1.55;1.45;;;;;;;;;;6158744;23;20001;-69
2022/08/02 10:04:47;;;;;;;2.03;1.48;;;;;;;;;;6158014;23;20084;-70
2022/08/02 10:07:13;;;;;;;1.88;1.40;;;;;;;;;;6158693;23;20029;-70
2022/08/02 10:09:40;;;;;;;2.92;1.02;;;;;;;;;;6157854;23;20021;-70
2022/08/02 10:12:07;;;;;;;2.67;1.23;;;;;;;;;;6157928;23;20005;-69
2022/08/02 10:14:34;;;;;;;1.42;1.33;;;;;;;;;;6158556;23;20004;-70
2022/08/02 10:17:00;;;;;;;1.65;1.27;;;;;;;;;;6157934;23;20005;-69
2022/08/02 10:19:26;;;;;;;1.83;1.58;;;;;;;;;;6157947;23;20121;-69
2022/08/02 10:21:57;;;;;;;4.15;1.40;;;;;;;;;;6157858;23;20028;-69
2022/08/02 10:24:26;;;;;;;2.08;1.10;;;;;;;;;;6157812;23;20006;-69
2022/08/02 10:26:53;;;;;;;2.58;1.50;;;;;;;;;;6158115;23;20001;-70
2022/08/02 10:29:20;;;;;;;3.78;1.40;;;;;;;;;;6157676;23;20021;-70
2022/08/02 10:31:53;;;;;;;1.35;1.25;;;;;;;;;;6158030;23;20068;-70
2022/08/02 10:34:22;;;;;;;1.30;0.90;;;;;;;;;;6158016;23;20322;-70
2022/08/02 10:36:49;;;;;;;4.63;1.20;;;;;;;;;;6157780;23;20001;-69
2022/08/02 10:39:15;;;;;;;1.27;1.08;;;;;;;;;;6157870;23;20005;-70
2022/08/02 10:41:49;;;;;;;1.00;1.00;;;;;;;;;;6157865;23;20005;-70
2022/08/02 10:44:21;;;;;;;2.08;1.00;;;;;;;;;;6158166;23;19997;-70
2022/08/02 10:46:47;;;;;;;2.08;0.80;;;;;;;;;;6157680;23;20056;-70
2022/08/02 10:49:15;;;;;;;1.67;1.02;;;;;;;;;;6157543;23;20452;-70
2022/08/02 10:51:56;;;;;;;3.30;1.10;;;;;;;;;;6157620;23;20001;-70
2022/08/02 10:54:27;;;;;;;3.60;1.02;;;;;;;;;;6157889;23;20012;-70
2022/08/02 10:56:55;;;;;;;2.38;1.02;;;;;;;;;;6157485;23;20028;-70
2022/08/02 10:59:25;;;;;;;1.23;1.00;;;;;;;;;;6157465;23;20032;-70
2022/08/02 11:01:55;;;;;;;1.97;1.10;;;;;;;;;;6157422;23;20009;-70
2022/08/02 11:04:22;;;;;;;1.10;1.00;;;;;;;;;;6158073;23;20002;-70
2022/08/02 11:07:21;;;;;;;1.30;0.70;;;;;;;;;;6157435;23;20001;-70
2022/08/02 11:09:50;;;;;;;3.15;0.98;;;;;;;;;;6108042;23;20013;-70
2022/08/02 11:12:17;;;;;;;2.75;1.30;;;;;;;;;;6157013;23;20006;-70
2022/08/02 11:14:45;;;;;;;1.73;0.80;;;;;;;;;;6157248;23;20002;-70
2022/08/02 11:17:18;;;;;;;1.60;0.88;;;;;;;;;;6157362;23;20005;-70
2022/08/02 11:20:03;;;;;;;1.00;0.90;;;;;;;;;;6157490;23;20014;-70
2022/08/02 11:22:29;;;;;;;2.25;0.90;;;;;;;;;;6156978;23;20006;-70
2022/08/02 11:24:56;;;;;;;3.25;0.98;;;;;;;;;;6157306;23;20044;-70
2022/08/02 11:27:22;;;;;;;1.33;0.70;;;;;;;;;;6157283;23;20129;-70
2022/08/02 11:29:48;;;;;;;0.73;0.70;;;;;;;;;;6157180;23;20068;-70
2022/08/02 11:32:17;;;;;;;1.25;0.70;;;;;;;;;;6156746;23;20012;-70
2022/08/02 11:34:45;;;;;;;1.50;1.00;;;;;;;;;;6157368;23;20077;-70
2022/08/02 11:37:11;;;;;;;1.25;0.80;;;;;;;;;;6157177;23;20025;-70
2022/08/02 11:39:37;;;;;;;0.93;0.70;;;;;;;;;;6156914;23;20459;-70
2022/08/02 11:42:04;;;;;;;1.05;0.82;;;;;;;;;;6157072;23;20005;-70
2022/08/02 11:44:39;;;;;;;2.17;0.80;;;;;;;;;;6156880;23;20002;-70
2022/08/02 11:47:07;;;;;;;0.90;0.75;;;;;;;;;;6156375;23;20010;-70
2022/08/02 11:49:33;;;;;;;3.30;0.80;;;;;;;;;;6156503;23;20341;-70
2022/08/02 11:52:03;;;;;;;0.90;0.90;;;;;;;;;;6156959;23;20013;-70
2022/08/02 11:54:34;;;;;;;2.53;0.82;;;;;;;;;;6157184;23;20051;-70
2022/08/02 11:57:15;;;;;;;5.93;0.95;;;;;;;;;;6156969;23;20041;-70
2022/08/02 11:59:42;;;;;;;1.23;0.85;;;;;;;;;;6156833;23;20020;-70
2022/08/02 12:02:08;;;;;;;0.85;0.77;;;;;;;;;;6156949;23;20056;-70
2022/08/02 12:04:35;;;;;;;0.95;0.95;;;;;;;;;;6157422;23;20001;-70
2022/08/02 12:07:01;;;;;;;0.70;0.65;;;;;;;;;;6156550;23;19997;-70
2022/08/02 12:09:28;;;;;;;3.50;0.73;;;;;;;;;;6156867;23;20014;-70
2022/08/02 12:11:55;;;;;;;2.58;0.88;;;;;;;;;;6156530;23;20370;-70
2022/08/02 12:14:22;;;;;;;0.70;0.70;;;;;;;;;;6157411;23;20073;-70
2022/08/02 12:19:34;;;;;;;1.70;1.08;;;;;;;;;;6156217;23;20376;-70
2022/08/02 12:22:19;;;;;;;1.85;0.90;;;;;;;;;;6156820;23;20017;-70
2022/08/02 12:24:47;;;;;;;1.33;1.00;;;;;;;;;;6155006;23;20017;-72
2022/08/02 12:27:28;;;;;;;4.25;0.70;;;;;;;;;;6156408;23;20001;-72
2022/08/02 12:30:00;;;;;;;1.02;0.82;;;;;;;;;;6154277;23;20096;-72
2022/08/02 12:32:26;;;;;;;0.77;0.70;;;;;;;;;;6156546;23;20002;-72
2022/08/02 12:35:11;;;;;;;0.65;0.60;;;;;;;;;;6156874;23;20005;-72
2022/08/02 12:37:38;;;;;;;1.95;0.75;;;;;;;;;;6156524;23;20077;-72
2022/08/02 12:40:24;;;;;;;3.15;0.70;;;;;;;;;;6152247;23;20006;-72
2022/08/02 12:42:51;;;;;;;0.85;0.60;;;;;;;;;;6154491;23;20056;-71
2022/08/02 12:45:18;;;;;;;1.45;0.77;;;;;;;;;;6156078;23;20005;-71
2022/08/02 12:47:48;;;;;;;1.55;0.75;;;;;;;;;;6154640;23;20001;-72
2022/08/02 12:50:17;;;;;;;2.40;0.70;;;;;;;;;;6155755;23;20344;-71
2022/08/02 12:52:43;;;;;;;0.60;0.60;;;;;;;;;;6155860;23;20455;-71
2022/08/02 12:55:16;;;;;;;0.90;0.60;;;;;;;;;;6154614;23;20345;-72
2022/08/02 12:57:52;;;;;;;0.70;0.50;;;;;;;;;;6154160;23;20002;-73
2022/08/02 13:00:31;;;;;;;2.22;0.70;;;;;;;;;;6156114;23;20001;-72
2022/08/02 13:02:58;;;;;;;1.60;0.73;;;;;;;;;;6155619;23;20064;-72
2022/08/02 13:05:24;;;;;;;0.60;0.60;;;;;;;;;;6155449;23;20009;-72
2022/08/02 13:07:51;;;;;;;1.58;0.55;;;;;;;;;;6156916;23;20002;-72
2022/08/02 13:10:17;;;;;;;0.40;0.40;;;;;;;;;;6156686;23;20141;-72
2022/08/02 13:12:44;;;;;;;1.85;0.63;;;;;;;;;;6156441;23;20002;-72
2022/08/02 13:15:10;;;;;;;0.70;0.70;;;;;;;;;;6156662;23;20035;-72
2022/08/02 13:17:36;;;;;;;1.23;0.60;;;;;;;;;;6157763;23;20002;-71
2022/08/02 13:20:03;;;;;;;0.93;0.70;;;;;;;;;;6157590;23;20006;-72
2022/08/02 13:22:30;;;;;;;0.47;0.47;;;;;;;;;;6157979;23;20008;-72
2022/08/02 13:24:56;;;;;;;1.42;1.00;;;;;;;;;;6156779;23;20021;-73
2022/08/02 13:27:22;;;;;;;3.28;0.50;;;;;;;;;;6156605;23;20004;-72
2022/08/02 13:29:49;;;;;;;0.60;0.60;;;;;;;;;;6157208;23;20089;-72
2022/08/02 13:32:15;;;;;;;0.63;0.63;;;;;;;;;;6157453;23;20001;-72
2022/08/02 13:34:41;;;;;;;1.23;0.60;;;;;;;;;;6156687;23;20060;-72
2022/08/02 13:37:07;;;;;;;0.77;0.77;;;;;;;;;;6157084;23;20069;-72
2022/08/02 13:39:34;;;;;;;2.22;0.70;;;;;;;;;;6157496;23;20033;-72
2022/08/02 13:42:00;;;;;;;2.05;0.65;;;;;;;;;;6155855;23;20041;-72
2022/08/02 13:44:26;;;;;;;1.48;0.50;;;;;;;;;;6157576;23;20005;-72
2022/08/02 13:46:52;;;;;;;0.60;0.60;;;;;;;;;;6156993;23;20002;-72
2022/08/02 13:49:18;;;;;;;0.60;0.60;;;;;;;;;;6156458;23;20019;-72
2022/08/02 13:51:44;;;;;;;0.55;0.50;;;;;;;;;;6156807;23;20013;-72
2022/08/02 13:54:11;;;;;;;1.90;0.60;;;;;;;;;;6156887;23;20005;-72
2022/08/02 13:56:37;;;;;;;1.65;0.73;;;;;;;;;;6157354;23;20009;-72
2022/08/02 13:59:03;;;;;;;0.60;0.60;;;;;;;;;;6158005;23;20009;-71
2022/08/02 14:01:31;;;;;;;2.15;0.77;;;;;;;;;;6158468;23;20006;-71
2022/08/02 14:03:58;;;;;;;2.40;0.60;;;;;;;;;;6156766;23;20001;-71
2022/08/02 14:06:25;;;;;;;1.83;0.88;;;;;;;;;;6157840;23;20001;-71
2022/08/02 14:08:51;;;;;;;1.58;0.80;;;;;;;;;;6157192;23;20429;-71
2022/08/02 14:11:17;;;;;;;1.55;0.47;;;;;;;;;;6156784;23;20421;-71
2022/08/02 14:13:44;;;;;;;0.98;0.70;;;;;;;;;;6158718;23;20414;-71
2022/08/02 14:16:10;;;;;;;0.75;0.50;;;;;;;;;;6158001;23;20001;-71
2022/08/02 14:18:37;;;;;;;1.75;0.60;;;;;;;;;;6157513;23;20005;-71
2022/08/02 14:21:03;;;;;;;0.93;0.70;;;;;;;;;;6157579;23;20005;-71
2022/08/02 14:23:30;;;;;;;5.30;0.75;;;;;;;;;;6157586;23;20028;-71
2022/08/02 14:25:57;;;;;;;4.28;0.70;;;;;;;;;;6158108;23;20048;-71
2022/08/02 14:28:23;;;;;;;1.17;0.60;;;;;;;;;;6157378;23;20450;-71
2022/08/02 14:30:49;;;;;;;0.60;0.60;;;;;;;;;;6157916;23;20037;-71
2022/08/02 14:33:17;;;;;;;0.57;0.50;;;;;;;;;;6157714;23;20064;-71
2022/08/02 14:35:43;;;;;;;1.13;0.70;;;;;;;;;;6157305;23;20052;-71
2022/08/02 14:38:10;;;;;;;4.43;1.35;;;;;;;;;;6158401;23;20456;-71
2022/08/02 14:40:36;;;;;;;1.42;0.65;;;;;;;;;;6157140;23;20572;-71
2022/08/02 14:43:03;;;;;;;0.75;0.60;;;;;;;;;;6158019;23;20061;-71
2022/08/02 14:45:29;;;;;;;1.85;0.70;;;;;;;;;;6157831;23;20059;-71
2022/08/02 14:47:56;;;;;;;0.70;0.65;;;;;;;;;;6157418;23;20128;-71
2022/08/02 14:50:22;;;;;;;2.50;0.60;;;;;;;;;;6157685;23;20013;-71